sensor_id;sensor_type;location;lat;lon;timestamp;temperature;humidity
21298;DHT22;10808;48.010;11.326;2022-08-19T00:01:28;18.90;99.90
21298;DHT22;10808;48.010;11.326;2022-08-19T00:04:00;19.00;99.90
21298;DHT22;10808;48.010;11.326;2022-08-19T00:06:27;19.00;99.90
21298;DHT22;10808;48.010;11.326;2022-08-19T00:08:55;19.00;99.90
21298;DHT22;10808;48.010;11.326;2022-08-19T00:11:22;19.00;99.90
21298;DHT22;10808;48.010;11.326;2022-08-19T00:13:48;19.00;99.90
21298;DHT22;10808;48.010;11.326;2022-08-19T00:16:17;19.00;99.90
21298;DHT22;10808;48.010;11.326;2022-08-19T00:18:47;19.00;99.90
21298;DHT22;10808;48.010;11.326;2022-08-19T00:21:13;19.10;99.90
21298;DHT22;10808;48.010;11.326;2022-08-19T00:23:40;19.10;99.90
21298;DHT22;10808;48.010;11.326;2022-08-19T00:26:08;19.10;99.90
21298;DHT22;10808;48.010;11.326;2022-08-19T00:28:35;19.10;99.90
21298;DHT22;10808;48.010;11.326;2022-08-19T00:31:04;19.20;99.90
21298;DHT22;10808;48.010;11.326;2022-08-19T00:33:31;19.10;99.90
21298;DHT22;10808;48.010;11.326;2022-08-19T00:36:02;19.10;99.90
21298;DHT22;10808;48.010;11.326;2022-08-19T00:38:30;19.10;99.90
21298;DHT22;10808;48.010;11.326;2022-08-19T00:40:56;19.10;99.90
21298;DHT22;10808;48.010;11.326;2022-08-19T00:43:24;19.10;99.90
21298;DHT22;10808;48.010;11.326;2022-08-19T00:45:52;19.10;99.90
21298;DHT22;10808;48.010;11.326;2022-08-19T00:48:19;19.10;99.90
21298;DHT22;10808;48.010;11.326;2022-08-19T00:50:47;19.00;99.90
21298;DHT22;10808;48.010;11.326;2022-08-19T00:53:18;19.00;99.90
21298;DHT22;10808;48.010;11.326;2022-08-19T00:55:48;18.90;99.90
21298;DHT22;10808;48.010;11.326;2022-08-19T00:58:18;18.80;99.90
21298;DHT22;10808;48.010;11.326;2022-08-19T01:00:46;18.80;99.90
21298;DHT22;10808;48.010;11.326;2022-08-19T01:03:16;18.80;99.90
21298;DHT22;10808;48.010;11.326;2022-08-19T01:05:44;18.70;99.90
21298;DHT22;10808;48.010;11.326;2022-08-19T01:08:12;18.70;99.90
21298;DHT22;10808;48.010;11.326;2022-08-19T01:10:47;18.70;99.90
21298;DHT22;10808;48.010;11.326;2022-08-19T01:13:16;18.70;99.90
21298;DHT22;10808;48.010;11.326;2022-08-19T01:15:47;18.80;99.90
21298;DHT22;10808;48.010;11.326;2022-08-19T01:18:17;18.80;99.90
21298;DHT22;10808;48.010;11.326;2022-08-19T01:20:44;18.70;99.90
21298;DHT22;10808;48.010;11.326;2022-08-19T01:23:10;18.70;99.90
21298;DHT22;10808;48.010;11.326;2022-08-19T01:25:49;18.70;99.90
21298;DHT22;10808;48.010;11.326;2022-08-19T01:28:23;18.70;99.90
21298;DHT22;10808;48.010;11.326;2022-08-19T01:30:52;18.70;99.90
21298;DHT22;10808;48.010;11.326;2022-08-19T01:33:20;18.70;99.90
21298;DHT22;10808;48.010;11.326;2022-08-19T01:35:47;18.70;99.90
21298;DHT22;10808;48.010;11.326;2022-08-19T01:38:24;18.80;99.90
21298;DHT22;10808;48.010;11.326;2022-08-19T01:40:51;18.80;99.90
21298;DHT22;10808;48.010;11.326;2022-08-19T01:43:17;18.80;99.90
21298;DHT22;10808;48.010;11.326;2022-08-19T01:45:46;18.80;99.90
21298;DHT22;10808;48.010;11.326;2022-08-19T01:48:13;18.70;99.90
21298;DHT22;10808;48.010;11.326;2022-08-19T01:50:39;18.70;99.90
21298;DHT22;10808;48.010;11.326;2022-08-19T01:53:09;18.80;99.90
21298;DHT22;10808;48.010;11.326;2022-08-19T01:55:39;18.80;99.90
21298;DHT22;10808;48.010;11.326;2022-08-19T01:58:09;18.80;99.90
21298;DHT22;10808;48.010;11.326;2022-08-19T02:00:36;18.80;99.90
21298;DHT22;10808;48.010;11.326;2022-08-19T02:03:02;18.80;99.90
21298;DHT22;10808;48.010;11.326;2022-08-19T02:05:29;18.90;99.90
21298;DHT22;10808;48.010;11.326;2022-08-19T02:07:56;18.80;99.90
21298;DHT22;10808;48.010;11.326;2022-08-19T02:10:22;18.90;99.90
21298;DHT22;10808;48.010;11.326;2022-08-19T02:12:50;18.80;99.90
21298;DHT22;10808;48.010;11.326;2022-08-19T02:15:17;18.90;99.90
21298;DHT22;10808;48.010;11.326;2022-08-19T02:17:45;18.90;99.90
21298;DHT22;10808;48.010;11.326;2022-08-19T02:20:12;18.90;99.90
21298;DHT22;10808;48.010;11.326;2022-08-19T02:22:41;18.90;99.90
21298;DHT22;10808;48.010;11.326;2022-08-19T02:25:12;18.90;99.90
21298;DHT22;10808;48.010;11.326;2022-08-19T02:27:40;18.90;99.90
21298;DHT22;10808;48.010;11.326;2022-08-19T02:30:10;18.90;99.90
21298;DHT22;10808;48.010;11.326;2022-08-19T02:32:36;18.90;99.90
21298;DHT22;10808;48.010;11.326;2022-08-19T02:35:03;18.90;99.90
21298;DHT22;10808;48.010;11.326;2022-08-19T02:37:29;19.00;99.90
21298;DHT22;10808;48.010;11.326;2022-08-19T02:40:14;19.00;99.90
21298;DHT22;10808;48.010;11.326;2022-08-19T02:42:40;19.10;99.90
21298;DHT22;10808;48.010;11.326;2022-08-19T02:45:07;19.00;99.90
21298;DHT22;10808;48.010;11.326;2022-08-19T02:47:34;19.00;99.90
21298;DHT22;10808;48.010;11.326;2022-08-19T02:50:02;19.10;99.90
21298;DHT22;10808;48.010;11.326;2022-08-19T02:52:28;19.10;99.90
21298;DHT22;10808;48.010;11.326;2022-08-19T02:54:54;19.00;99.90
21298;DHT22;10808;48.010;11.326;2022-08-19T02:57:23;18.90;99.90
21298;DHT22;10808;48.010;11.326;2022-08-19T02:59:50;18.90;99.90
21298;DHT22;10808;48.010;11.326;2022-08-19T03:02:16;18.90;99.90
21298;DHT22;10808;48.010;11.326;2022-08-19T03:04:42;18.90;99.90
21298;DHT22;10808;48.010;11.326;2022-08-19T03:07:12;18.90;99.90
21298;DHT22;10808;48.010;11.326;2022-08-19T03:09:39;18.80;99.90
21298;DHT22;10808;48.010;11.326;2022-08-19T03:12:05;18.90;99.90
21298;DHT22;10808;48.010;11.326;2022-08-19T03:14:33;18.80;99.90
21298;DHT22;10808;48.010;11.326;2022-08-19T03:16:59;18.90;99.90
21298;DHT22;10808;48.010;11.326;2022-08-19T03:19:26;18.90;99.90
21298;DHT22;10808;48.010;11.326;2022-08-19T03:21:53;18.90;99.90
21298;DHT22;10808;48.010;11.326;2022-08-19T03:24:20;19.00;99.90
21298;DHT22;10808;48.010;11.326;2022-08-19T03:26:50;19.00;99.90
21298;DHT22;10808;48.010;11.326;2022-08-19T03:29:17;19.00;99.90
21298;DHT22;10808;48.010;11.326;2022-08-19T03:31:45;19.00;99.90
21298;DHT22;10808;48.010;11.326;2022-08-19T03:34:32;19.10;99.90
21298;DHT22;10808;48.010;11.326;2022-08-19T03:37:07;19.00;99.90
21298;DHT22;10808;48.010;11.326;2022-08-19T03:39:35;19.00;99.90
21298;DHT22;10808;48.010;11.326;2022-08-19T03:42:02;19.00;99.90
21298;DHT22;10808;48.010;11.326;2022-08-19T03:44:29;19.00;99.90
21298;DHT22;10808;48.010;11.326;2022-08-19T03:46:57;19.00;99.90
21298;DHT22;10808;48.010;11.326;2022-08-19T03:49:25;19.00;99.90
21298;DHT22;10808;48.010;11.326;2022-08-19T03:51:53;19.00;99.90
21298;DHT22;10808;48.010;11.326;2022-08-19T03:54:21;19.00;99.90
21298;DHT22;10808;48.010;11.326;2022-08-19T03:56:50;19.00;99.90
21298;DHT22;10808;48.010;11.326;2022-08-19T03:59:22;19.00;99.90
21298;DHT22;10808;48.010;11.326;2022-08-19T04:01:56;19.10;99.90
21298;DHT22;10808;48.010;11.326;2022-08-19T04:04:23;19.00;99.90
21298;DHT22;10808;48.010;11.326;2022-08-19T04:06:50;19.10;99.90
21298;DHT22;10808;48.010;11.326;2022-08-19T04:09:18;19.10;99.90
21298;DHT22;10808;48.010;11.326;2022-08-19T04:11:50;19.00;99.90
21298;DHT22;10808;48.010;11.326;2022-08-19T04:14:21;19.00;99.90
21298;DHT22;10808;48.010;11.326;2022-08-19T04:16:48;19.00;99.90
21298;DHT22;10808;48.010;11.326;2022-08-19T04:19:15;19.00;99.90
21298;DHT22;10808;48.010;11.326;2022-08-19T04:21:49;19.00;99.90
21298;DHT22;10808;48.010;11.326;2022-08-19T04:24:16;18.90;99.90
21298;DHT22;10808;48.010;11.326;2022-08-19T04:26:42;19.00;99.90
21298;DHT22;10808;48.010;11.326;2022-08-19T04:29:13;19.00;99.90
21298;DHT22;10808;48.010;11.326;2022-08-19T04:31:40;19.10;99.90
21298;DHT22;10808;48.010;11.326;2022-08-19T04:34:08;19.10;99.90
21298;DHT22;10808;48.010;11.326;2022-08-19T04:36:37;19.10;99.90
21298;DHT22;10808;48.010;11.326;2022-08-19T04:39:16;19.10;99.90
21298;DHT22;10808;48.010;11.326;2022-08-19T04:41:43;19.10;99.90
21298;DHT22;10808;48.010;11.326;2022-08-19T04:44:30;19.10;99.90
21298;DHT22;10808;48.010;11.326;2022-08-19T04:46:57;19.10;99.90
21298;DHT22;10808;48.010;11.326;2022-08-19T04:49:23;19.10;99.90
21298;DHT22;10808;48.010;11.326;2022-08-19T04:51:52;19.10;99.90
21298;DHT22;10808;48.010;11.326;2022-08-19T04:54:21;19.10;99.90
21298;DHT22;10808;48.010;11.326;2022-08-19T04:56:49;19.20;99.90
21298;DHT22;10808;48.010;11.326;2022-08-19T04:59:16;19.10;99.90
21298;DHT22;10808;48.010;11.326;2022-08-19T05:01:42;19.20;99.90
21298;DHT22;10808;48.010;11.326;2022-08-19T05:04:09;19.20;99.90
21298;DHT22;10808;48.010;11.326;2022-08-19T05:06:35;19.20;99.90
21298;DHT22;10808;48.010;11.326;2022-08-19T05:09:05;19.10;99.90
21298;DHT22;10808;48.010;11.326;2022-08-19T05:11:35;19.20;99.90
21298;DHT22;10808;48.010;11.326;2022-08-19T05:14:06;19.10;99.90
21298;DHT22;10808;48.010;11.326;2022-08-19T05:16:32;19.10;99.90
21298;DHT22;10808;48.010;11.326;2022-08-19T05:18:58;19.00;99.90
21298;DHT22;10808;48.010;11.326;2022-08-19T05:21:43;19.10;99.90
21298;DHT22;10808;48.010;11.326;2022-08-19T05:24:28;19.10;99.90
21298;DHT22;10808;48.010;11.326;2022-08-19T05:26:56;19.20;99.90
21298;DHT22;10808;48.010;11.326;2022-08-19T05:29:25;19.20;99.90
21298;DHT22;10808;48.010;11.326;2022-08-19T05:31:52;19.20;99.90
21298;DHT22;10808;48.010;11.326;2022-08-19T05:34:19;19.20;99.90
21298;DHT22;10808;48.010;11.326;2022-08-19T05:36:52;19.20;99.90
21298;DHT22;10808;48.010;11.326;2022-08-19T05:39:21;19.20;99.90
21298;DHT22;10808;48.010;11.326;2022-08-19T05:41:51;19.20;99.90
21298;DHT22;10808;48.010;11.326;2022-08-19T05:44:18;19.30;99.90
21298;DHT22;10808;48.010;11.326;2022-08-19T05:46:46;19.30;99.90
21298;DHT22;10808;48.010;11.326;2022-08-19T05:49:21;19.30;99.90
21298;DHT22;10808;48.010;11.326;2022-08-19T05:51:47;19.40;99.90
21298;DHT22;10808;48.010;11.326;2022-08-19T05:54:14;19.30;99.90
21298;DHT22;10808;48.010;11.326;2022-08-19T05:56:42;19.30;99.90
21298;DHT22;10808;48.010;11.326;2022-08-19T05:59:09;19.40;99.90
21298;DHT22;10808;48.010;11.326;2022-08-19T06:01:39;19.40;99.90
21298;DHT22;10808;48.010;11.326;2022-08-19T06:04:06;19.40;99.90
21298;DHT22;10808;48.010;11.326;2022-08-19T06:06:33;19.40;99.90
21298;DHT22;10808;48.010;11.326;2022-08-19T06:09:05;19.40;99.90
21298;DHT22;10808;48.010;11.326;2022-08-19T06:11:40;19.40;99.90
21298;DHT22;10808;48.010;11.326;2022-08-19T06:14:10;19.40;99.90
21298;DHT22;10808;48.010;11.326;2022-08-19T06:16:38;19.40;99.90
21298;DHT22;10808;48.010;11.326;2022-08-19T06:19:09;19.40;99.90
21298;DHT22;10808;48.010;11.326;2022-08-19T06:21:36;19.40;99.90
21298;DHT22;10808;48.010;11.326;2022-08-19T06:24:05;19.50;99.90
21298;DHT22;10808;48.010;11.326;2022-08-19T06:26:36;19.50;99.90
21298;DHT22;10808;48.010;11.326;2022-08-19T06:29:05;19.50;99.90
21298;DHT22;10808;48.010;11.326;2022-08-19T06:31:33;19.50;99.90
21298;DHT22;10808;48.010;11.326;2022-08-19T06:34:01;19.50;99.90
21298;DHT22;10808;48.010;11.326;2022-08-19T06:36:37;19.60;99.90
21298;DHT22;10808;48.010;11.326;2022-08-19T06:39:05;19.60;99.90
21298;DHT22;10808;48.010;11.326;2022-08-19T06:41:35;19.60;99.90
21298;DHT22;10808;48.010;11.326;2022-08-19T06:44:02;19.60;99.90
21298;DHT22;10808;48.010;11.326;2022-08-19T06:46:28;19.60;99.90
21298;DHT22;10808;48.010;11.326;2022-08-19T06:48:54;19.60;99.90
21298;DHT22;10808;48.010;11.326;2022-08-19T06:51:21;19.60;99.90
21298;DHT22;10808;48.010;11.326;2022-08-19T06:53:49;19.60;99.90
21298;DHT22;10808;48.010;11.326;2022-08-19T06:56:23;19.60;99.90
21298;DHT22;10808;48.010;11.326;2022-08-19T06:58:51;19.60;99.90
21298;DHT22;10808;48.010;11.326;2022-08-19T07:01:19;19.60;99.90
21298;DHT22;10808;48.010;11.326;2022-08-19T07:03:46;19.60;99.90
21298;DHT22;10808;48.010;11.326;2022-08-19T07:06:15;19.60;99.90
21298;DHT22;10808;48.010;11.326;2022-08-19T07:08:45;19.60;99.90
21298;DHT22;10808;48.010;11.326;2022-08-19T07:11:16;19.60;99.90
21298;DHT22;10808;48.010;11.326;2022-08-19T07:13:44;19.70;99.90
21298;DHT22;10808;48.010;11.326;2022-08-19T07:16:15;19.70;99.90
21298;DHT22;10808;48.010;11.326;2022-08-19T07:18:41;19.70;99.90
21298;DHT22;10808;48.010;11.326;2022-08-19T07:21:09;19.70;99.90
21298;DHT22;10808;48.010;11.326;2022-08-19T07:23:35;19.60;99.90
21298;DHT22;10808;48.010;11.326;2022-08-19T07:26:11;19.60;99.90
21298;DHT22;10808;48.010;11.326;2022-08-19T07:28:39;19.60;99.90
21298;DHT22;10808;48.010;11.326;2022-08-19T07:31:11;19.60;99.90
21298;DHT22;10808;48.010;11.326;2022-08-19T07:33:40;19.70;99.90
21298;DHT22;10808;48.010;11.326;2022-08-19T07:36:10;19.70;99.90
21298;DHT22;10808;48.010;11.326;2022-08-19T07:38:40;19.70;99.90
21298;DHT22;10808;48.010;11.326;2022-08-19T07:41:09;19.80;99.90
21298;DHT22;10808;48.010;11.326;2022-08-19T07:43:37;19.80;99.90
21298;DHT22;10808;48.010;11.326;2022-08-19T07:46:03;19.80;99.90
21298;DHT22;10808;48.010;11.326;2022-08-19T07:48:30;19.80;99.90
21298;DHT22;10808;48.010;11.326;2022-08-19T07:51:00;19.80;99.90
21298;DHT22;10808;48.010;11.326;2022-08-19T07:53:29;19.80;99.90
21298;DHT22;10808;48.010;11.326;2022-08-19T07:55:57;19.80;99.90
21298;DHT22;10808;48.010;11.326;2022-08-19T07:58:27;19.80;99.90
21298;DHT22;10808;48.010;11.326;2022-08-19T08:00:53;19.80;99.90
21298;DHT22;10808;48.010;11.326;2022-08-19T08:03:21;19.70;99.90
21298;DHT22;10808;48.010;11.326;2022-08-19T08:06:08;19.70;99.90
21298;DHT22;10808;48.010;11.326;2022-08-19T08:08:53;19.70;99.90
21298;DHT22;10808;48.010;11.326;2022-08-19T08:11:39;19.70;99.90
21298;DHT22;10808;48.010;11.326;2022-08-19T08:14:06;19.70;99.90
21298;DHT22;10808;48.010;11.326;2022-08-19T08:16:37;19.70;99.90
21298;DHT22;10808;48.010;11.326;2022-08-19T08:19:05;19.70;99.90
21298;DHT22;10808;48.010;11.326;2022-08-19T08:21:32;19.70;99.90
21298;DHT22;10808;48.010;11.326;2022-08-19T08:23:59;19.70;99.90
21298;DHT22;10808;48.010;11.326;2022-08-19T08:26:27;19.80;99.90
21298;DHT22;10808;48.010;11.326;2022-08-19T08:28:53;19.80;99.90
21298;DHT22;10808;48.010;11.326;2022-08-19T08:31:20;19.80;99.90
21298;DHT22;10808;48.010;11.326;2022-08-19T08:33:48;19.80;99.90
21298;DHT22;10808;48.010;11.326;2022-08-19T08:36:14;19.90;99.90
21298;DHT22;10808;48.010;11.326;2022-08-19T08:38:42;19.90;99.90
21298;DHT22;10808;48.010;11.326;2022-08-19T08:43:57;19.90;99.90
21298;DHT22;10808;48.010;11.326;2022-08-19T08:46:44;20.00;99.90
21298;DHT22;10808;48.010;11.326;2022-08-19T08:52:05;20.00;99.90
21298;DHT22;10808;48.010;11.326;2022-08-19T08:54:42;20.10;99.90
21298;DHT22;10808;48.010;11.326;2022-08-19T08:57:14;20.10;99.90
21298;DHT22;10808;48.010;11.326;2022-08-19T08:59:43;20.10;99.90
21298;DHT22;10808;48.010;11.326;2022-08-19T09:02:14;20.20;99.90
21298;DHT22;10808;48.010;11.326;2022-08-19T09:04:42;20.20;99.90
21298;DHT22;10808;48.010;11.326;2022-08-19T09:10:31;20.20;99.90
21298;DHT22;10808;48.010;11.326;2022-08-19T09:13:41;20.20;99.90
21298;DHT22;10808;48.010;11.326;2022-08-19T09:16:14;20.20;99.90
21298;DHT22;10808;48.010;11.326;2022-08-19T09:18:50;20.20;99.90
21298;DHT22;10808;48.010;11.326;2022-08-19T09:21:20;20.20;99.90
21298;DHT22;10808;48.010;11.326;2022-08-19T09:23:46;20.20;99.90
21298;DHT22;10808;48.010;11.326;2022-08-19T09:26:15;20.30;99.90
21298;DHT22;10808;48.010;11.326;2022-08-19T09:28:43;20.30;99.90
21298;DHT22;10808;48.010;11.326;2022-08-19T09:31:26;20.30;99.90
21298;DHT22;10808;48.010;11.326;2022-08-19T09:33:53;20.30;99.90
21298;DHT22;10808;48.010;11.326;2022-08-19T09:36:26;20.40;99.90
21298;DHT22;10808;48.010;11.326;2022-08-19T09:38:53;20.30;99.90
21298;DHT22;10808;48.010;11.326;2022-08-19T09:41:23;20.30;99.90
21298;DHT22;10808;48.010;11.326;2022-08-19T09:43:52;20.30;99.90
21298;DHT22;10808;48.010;11.326;2022-08-19T09:46:22;20.40;99.90
21298;DHT22;10808;48.010;11.326;2022-08-19T09:48:49;20.30;99.90
21298;DHT22;10808;48.010;11.326;2022-08-19T09:51:19;20.40;99.90
21298;DHT22;10808;48.010;11.326;2022-08-19T09:53:46;20.40;99.90
21298;DHT22;10808;48.010;11.326;2022-08-19T09:56:18;20.40;99.90
21298;DHT22;10808;48.010;11.326;2022-08-19T09:58:44;20.40;99.90
21298;DHT22;10808;48.010;11.326;2022-08-19T10:01:23;20.30;99.90
21298;DHT22;10808;48.010;11.326;2022-08-19T10:03:52;20.40;99.90
21298;DHT22;10808;48.010;11.326;2022-08-19T10:06:21;20.40;99.90
21298;DHT22;10808;48.010;11.326;2022-08-19T10:08:49;20.50;99.90
21298;DHT22;10808;48.010;11.326;2022-08-19T10:11:16;20.50;99.90
21298;DHT22;10808;48.010;11.326;2022-08-19T10:13:44;20.50;99.90
21298;DHT22;10808;48.010;11.326;2022-08-19T10:16:13;20.60;99.90
21298;DHT22;10808;48.010;11.326;2022-08-19T10:18:40;20.60;99.90
21298;DHT22;10808;48.010;11.326;2022-08-19T10:21:12;20.50;99.90
21298;DHT22;10808;48.010;11.326;2022-08-19T10:23:42;20.60;99.90
21298;DHT22;10808;48.010;11.326;2022-08-19T10:26:12;20.60;99.90
21298;DHT22;10808;48.010;11.326;2022-08-19T10:28:39;20.60;99.90
21298;DHT22;10808;48.010;11.326;2022-08-19T10:31:14;20.60;99.90
21298;DHT22;10808;48.010;11.326;2022-08-19T10:33:43;20.60;99.90
21298;DHT22;10808;48.010;11.326;2022-08-19T10:36:13;20.70;99.90
21298;DHT22;10808;48.010;11.326;2022-08-19T10:38:46;20.70;99.90
21298;DHT22;10808;48.010;11.326;2022-08-19T10:41:19;20.70;99.90
21298;DHT22;10808;48.010;11.326;2022-08-19T10:43:45;20.70;99.90
21298;DHT22;10808;48.010;11.326;2022-08-19T10:46:14;20.80;99.90
21298;DHT22;10808;48.010;11.326;2022-08-19T10:48:42;20.70;99.90
21298;DHT22;10808;48.010;11.326;2022-08-19T10:51:08;20.80;99.90
21298;DHT22;10808;48.010;11.326;2022-08-19T10:53:54;21.00;99.90
21298;DHT22;10808;48.010;11.326;2022-08-19T10:56:21;21.20;99.90
21298;DHT22;10808;48.010;11.326;2022-08-19T10:59:06;21.30;99.90
21298;DHT22;10808;48.010;11.326;2022-08-19T11:01:34;21.40;99.90
21298;DHT22;10808;48.010;11.326;2022-08-19T11:04:01;21.50;99.90
21298;DHT22;10808;48.010;11.326;2022-08-19T11:06:28;21.50;99.90
21298;DHT22;10808;48.010;11.326;2022-08-19T11:08:55;21.50;99.90
21298;DHT22;10808;48.010;11.326;2022-08-19T11:11:22;21.50;99.90
21298;DHT22;10808;48.010;11.326;2022-08-19T11:13:49;21.50;99.90
21298;DHT22;10808;48.010;11.326;2022-08-19T11:16:20;21.50;99.90
21298;DHT22;10808;48.010;11.326;2022-08-19T11:18:50;21.40;99.90
21298;DHT22;10808;48.010;11.326;2022-08-19T11:21:28;21.40;99.90
21298;DHT22;10808;48.010;11.326;2022-08-19T11:24:00;21.20;99.90
21298;DHT22;10808;48.010;11.326;2022-08-19T11:26:27;21.10;99.90
21298;DHT22;10808;48.010;11.326;2022-08-19T11:28:54;21.10;99.90
21298;DHT22;10808;48.010;11.326;2022-08-19T11:31:25;21.10;99.90
21298;DHT22;10808;48.010;11.326;2022-08-19T11:33:51;21.00;99.90
21298;DHT22;10808;48.010;11.326;2022-08-19T11:36:18;21.00;99.90
21298;DHT22;10808;48.010;11.326;2022-08-19T11:38:46;21.00;99.90
21298;DHT22;10808;48.010;11.326;2022-08-19T11:41:15;20.90;99.90
21298;DHT22;10808;48.010;11.326;2022-08-19T11:43:42;20.80;99.90
21298;DHT22;10808;48.010;11.326;2022-08-19T11:46:10;20.70;99.90
21298;DHT22;10808;48.010;11.326;2022-08-19T11:48:38;20.50;99.90
21298;DHT22;10808;48.010;11.326;2022-08-19T11:51:06;20.40;99.90
21298;DHT22;10808;48.010;11.326;2022-08-19T11:53:34;20.30;99.90
21298;DHT22;10808;48.010;11.326;2022-08-19T11:56:00;20.30;99.90
21298;DHT22;10808;48.010;11.326;2022-08-19T11:58:26;20.30;99.90
21298;DHT22;10808;48.010;11.326;2022-08-19T12:00:52;20.30;99.90
21298;DHT22;10808;48.010;11.326;2022-08-19T12:03:19;20.30;99.90
21298;DHT22;10808;48.010;11.326;2022-08-19T12:05:45;20.30;99.90
21298;DHT22;10808;48.010;11.326;2022-08-19T12:08:12;20.30;99.90
21298;DHT22;10808;48.010;11.326;2022-08-19T12:10:39;20.30;99.90
21298;DHT22;10808;48.010;11.326;2022-08-19T12:13:09;20.30;99.90
21298;DHT22;10808;48.010;11.326;2022-08-19T12:15:37;20.30;99.90
21298;DHT22;10808;48.010;11.326;2022-08-19T12:18:04;20.30;99.90
21298;DHT22;10808;48.010;11.326;2022-08-19T12:20:30;20.30;99.90
21298;DHT22;10808;48.010;11.326;2022-08-19T12:22:58;20.30;99.90
21298;DHT22;10808;48.010;11.326;2022-08-19T12:25:24;20.40;99.90
21298;DHT22;10808;48.010;11.326;2022-08-19T12:27:50;20.50;99.90
21298;DHT22;10808;48.010;11.326;2022-08-19T12:30:16;20.60;99.90
21298;DHT22;10808;48.010;11.326;2022-08-19T12:32:42;20.60;99.90
21298;DHT22;10808;48.010;11.326;2022-08-19T12:35:08;20.60;99.90
21298;DHT22;10808;48.010;11.326;2022-08-19T12:37:37;20.60;99.90
21298;DHT22;10808;48.010;11.326;2022-08-19T12:40:03;20.60;99.90
21298;DHT22;10808;48.010;11.326;2022-08-19T12:42:30;20.80;99.90
21298;DHT22;10808;48.010;11.326;2022-08-19T12:44:57;20.90;99.90
21298;DHT22;10808;48.010;11.326;2022-08-19T12:47:23;21.10;99.90
21298;DHT22;10808;48.010;11.326;2022-08-19T12:49:49;21.20;99.90
21298;DHT22;10808;48.010;11.326;2022-08-19T12:52:16;21.30;99.90
21298;DHT22;10808;48.010;11.326;2022-08-19T12:54:46;21.30;99.90
21298;DHT22;10808;48.010;11.326;2022-08-19T12:57:12;21.20;99.90
21298;DHT22;10808;48.010;11.326;2022-08-19T12:59:38;21.20;99.90
21298;DHT22;10808;48.010;11.326;2022-08-19T13:02:06;21.20;99.90
21298;DHT22;10808;48.010;11.326;2022-08-19T13:04:34;21.10;99.90
21298;DHT22;10808;48.010;11.326;2022-08-19T13:07:07;21.10;99.90
21298;DHT22;10808;48.010;11.326;2022-08-19T13:09:35;21.10;99.90
21298;DHT22;10808;48.010;11.326;2022-08-19T13:12:03;21.10;99.90
21298;DHT22;10808;48.010;11.326;2022-08-19T13:14:34;21.20;99.90
21298;DHT22;10808;48.010;11.326;2022-08-19T13:17:01;21.20;99.90
21298;DHT22;10808;48.010;11.326;2022-08-19T13:19:27;21.20;99.90
21298;DHT22;10808;48.010;11.326;2022-08-19T13:21:54;21.30;99.90
21298;DHT22;10808;48.010;11.326;2022-08-19T13:24:21;21.40;99.90
21298;DHT22;10808;48.010;11.326;2022-08-19T13:26:47;21.30;99.90
21298;DHT22;10808;48.010;11.326;2022-08-19T13:29:14;21.20;99.90
21298;DHT22;10808;48.010;11.326;2022-08-19T13:31:59;21.20;99.90
21298;DHT22;10808;48.010;11.326;2022-08-19T13:34:43;21.10;99.90
21298;DHT22;10808;48.010;11.326;2022-08-19T13:37:10;21.10;99.90
21298;DHT22;10808;48.010;11.326;2022-08-19T13:39:36;21.10;99.90
21298;DHT22;10808;48.010;11.326;2022-08-19T13:42:03;21.00;99.90
21298;DHT22;10808;48.010;11.326;2022-08-19T13:44:30;21.10;99.90
21298;DHT22;10808;48.010;11.326;2022-08-19T13:47:04;21.20;99.90
21298;DHT22;10808;48.010;11.326;2022-08-19T13:49:35;21.30;99.90
21298;DHT22;10808;48.010;11.326;2022-08-19T13:52:03;21.30;99.90
21298;DHT22;10808;48.010;11.326;2022-08-19T13:54:30;21.20;99.90
21298;DHT22;10808;48.010;11.326;2022-08-19T13:56:56;21.10;99.90
21298;DHT22;10808;48.010;11.326;2022-08-19T13:59:22;21.10;99.90
21298;DHT22;10808;48.010;11.326;2022-08-19T14:01:48;21.10;99.90
21298;DHT22;10808;48.010;11.326;2022-08-19T14:04:14;21.00;99.90
21298;DHT22;10808;48.010;11.326;2022-08-19T14:06:40;21.00;99.90
21298;DHT22;10808;48.010;11.326;2022-08-19T14:09:06;21.10;99.90
21298;DHT22;10808;48.010;11.326;2022-08-19T14:11:33;21.20;99.90
21298;DHT22;10808;48.010;11.326;2022-08-19T14:13:59;21.20;99.90
21298;DHT22;10808;48.010;11.326;2022-08-19T14:16:25;21.20;99.90
21298;DHT22;10808;48.010;11.326;2022-08-19T14:18:53;21.20;99.90
21298;DHT22;10808;48.010;11.326;2022-08-19T14:21:21;21.20;99.90
21298;DHT22;10808;48.010;11.326;2022-08-19T14:23:49;21.30;99.90
21298;DHT22;10808;48.010;11.326;2022-08-19T14:26:17;21.40;99.90
21298;DHT22;10808;48.010;11.326;2022-08-19T14:28:44;21.60;99.90
21298;DHT22;10808;48.010;11.326;2022-08-19T14:31:12;21.80;99.90
21298;DHT22;10808;48.010;11.326;2022-08-19T14:33:38;21.80;99.90
21298;DHT22;10808;48.010;11.326;2022-08-19T14:36:06;21.80;99.90
21298;DHT22;10808;48.010;11.326;2022-08-19T14:38:33;21.70;99.90
21298;DHT22;10808;48.010;11.326;2022-08-19T14:41:19;21.70;99.90
21298;DHT22;10808;48.010;11.326;2022-08-19T14:43:50;21.70;99.90
21298;DHT22;10808;48.010;11.326;2022-08-19T14:46:19;21.70;99.90
21298;DHT22;10808;48.010;11.326;2022-08-19T14:48:47;21.60;99.90
21298;DHT22;10808;48.010;11.326;2022-08-19T14:51:14;21.50;99.90
21298;DHT22;10808;48.010;11.326;2022-08-19T14:53:40;21.50;99.90
21298;DHT22;10808;48.010;11.326;2022-08-19T14:56:09;21.60;99.90
21298;DHT22;10808;48.010;11.326;2022-08-19T14:58:36;21.60;99.90
21298;DHT22;10808;48.010;11.326;2022-08-19T15:01:02;21.60;99.90
21298;DHT22;10808;48.010;11.326;2022-08-19T15:03:30;21.50;99.90
21298;DHT22;10808;48.010;11.326;2022-08-19T15:05:59;21.40;99.90
21298;DHT22;10808;48.010;11.326;2022-08-19T15:08:27;21.40;99.90
21298;DHT22;10808;48.010;11.326;2022-08-19T15:10:55;21.30;99.90
21298;DHT22;10808;48.010;11.326;2022-08-19T15:13:21;21.30;99.90
21298;DHT22;10808;48.010;11.326;2022-08-19T15:15:48;21.20;99.90
21298;DHT22;10808;48.010;11.326;2022-08-19T15:18:14;21.20;99.90
21298;DHT22;10808;48.010;11.326;2022-08-19T15:20:40;21.20;99.90
21298;DHT22;10808;48.010;11.326;2022-08-19T15:23:06;21.20;99.90
21298;DHT22;10808;48.010;11.326;2022-08-19T15:25:32;21.20;99.90
21298;DHT22;10808;48.010;11.326;2022-08-19T15:28:00;21.20;99.90
21298;DHT22;10808;48.010;11.326;2022-08-19T15:30:27;21.20;99.90
21298;DHT22;10808;48.010;11.326;2022-08-19T15:32:55;21.10;99.90
21298;DHT22;10808;48.010;11.326;2022-08-19T15:35:23;21.00;99.90